createdAt,value
2022-10-05T00:00:22.083Z,7.18
2022-10-05T00:01:33.850Z,6.53
2022-10-05T00:02:35.643Z,8.02
2022-10-05T00:03:38.930Z,7.47
2022-10-05T00:04:40.809Z,7.75
2022-10-05T00:05:44.997Z,8.40
2022-10-05T00:06:56.320Z,6.32
2022-10-05T00:08:22.036Z,7.88
2022-10-05T00:09:24.120Z,7.20
2022-10-05T00:10:26.184Z,6.00
2022-10-05T00:11:28.342Z,7.65
2022-10-05T00:12:30.125Z,7.90
2022-10-05T00:13:32.206Z,6.10
2022-10-05T00:14:36.137Z,8.07
2022-10-05T00:15:37.952Z,6.03
2022-10-05T00:16:39.749Z,6.15
2022-10-05T00:17:42.876Z,6.80
2022-10-05T00:18:50.706Z,7.00
2022-10-05T00:19:53.862Z,6.80
2022-10-05T00:20:55.832Z,6.30
2022-10-05T00:22:11.470Z,7.82
2022-10-05T00:23:29.725Z,6.28
2022-10-05T00:24:31.562Z,7.32
2022-10-05T00:25:33.322Z,8.75
2022-10-05T00:26:35.116Z,8.95
2022-10-05T00:27:38.919Z,7.00
2022-10-05T00:28:41.471Z,6.55
2022-10-05T00:29:43.649Z,7.35
2022-10-05T00:30:45.837Z,7.07
2022-10-05T00:31:48.697Z,6.27
2022-10-05T00:32:53.037Z,6.80
2022-10-05T00:33:58.589Z,7.15
2022-10-05T00:35:00.337Z,7.15
2022-10-05T00:36:02.088Z,7.22
2022-10-05T00:37:05.638Z,9.63
2022-10-05T00:38:07.522Z,6.70
2022-10-05T00:39:09.639Z,7.28
2022-10-05T00:40:31.745Z,6.88
2022-10-05T00:41:33.550Z,7.22
2022-10-05T00:43:14.961Z,8.50
2022-10-05T00:44:22.427Z,7.43
2022-10-05T00:45:36.154Z,7.65
2022-10-05T00:46:50.510Z,6.20
2022-10-05T00:48:15.751Z,7.40
2022-10-05T00:49:56.527Z,6.20
2022-10-05T00:51:24.677Z,6.25
2022-10-05T00:52:34.211Z,6.68
2022-10-05T00:53:43.120Z,6.80
2022-10-05T00:54:52.041Z,7.28
2022-10-05T00:56:12.542Z,6.57
2022-10-05T00:57:20.271Z,6.28
2022-10-05T00:58:52.193Z,9.75
2022-10-05T01:00:09.588Z,6.57
2022-10-05T01:01:28.069Z,6.97
2022-10-05T01:02:40.726Z,5.70
2022-10-05T01:04:23.406Z,8.65
2022-10-05T01:05:56.655Z,7.70
2022-10-05T01:07:26.093Z,7.80
2022-10-05T01:08:33.477Z,9.60
2022-10-05T01:09:42.989Z,9.93
2022-10-05T01:11:00.370Z,8.45
2022-10-05T01:12:05.696Z,10.27
2022-10-05T01:13:19.623Z,7.82
2022-10-05T01:14:30.131Z,9.65
2022-10-05T01:15:39.747Z,8.27
2022-10-05T01:16:41.584Z,7.75
2022-10-05T01:18:20.315Z,7.95
2022-10-05T01:19:33.943Z,8.38
2022-10-05T01:20:53.354Z,7.63
2022-10-05T01:22:19.719Z,6.47
2022-10-05T01:23:54.595Z,9.02
2022-10-05T01:25:41.628Z,8.43
2022-10-05T01:27:00.430Z,7.78
2022-10-05T01:28:23.526Z,10.45
2022-10-05T01:29:36.646Z,8.00
2022-10-05T01:30:46.182Z,7.22
2022-10-05T01:32:07.767Z,8.32
2022-10-05T01:33:40.311Z,9.32
2022-10-05T01:34:55.800Z,7.80
2022-10-05T01:36:18.879Z,8.30
2022-10-05T01:38:07.249Z,8.50
2022-10-05T01:39:18.703Z,10.57
2022-10-05T01:40:25.796Z,8.27
2022-10-05T01:41:36.442Z,9.20
2022-10-05T01:43:11.322Z,7.57
2022-10-05T01:44:27.962Z,7.32
2022-10-05T01:46:00.753Z,8.25
2022-10-05T01:47:21.864Z,10.70
2022-10-05T01:48:54.351Z,9.10
2022-10-05T01:50:27.079Z,7.87
2022-10-05T01:51:47.996Z,8.30
2022-10-05T01:53:00.628Z,7.72
2022-10-05T01:54:35.816Z,7.03
2022-10-05T01:56:14.933Z,7.95
2022-10-05T01:58:03.309Z,7.80
2022-10-05T01:59:22.881Z,8.93
2022-10-05T02:00:24.774Z,9.07
2022-10-05T02:01:35.982Z,9.65
2022-10-05T02:02:42.589Z,7.50
2022-10-05T02:03:59.974Z,8.17
2022-10-05T02:05:18.204Z,7.95
2022-10-05T02:06:26.310Z,8.02
2022-10-05T02:07:34.138Z,7.30
2022-10-05T02:08:49.085Z,9.05
2022-10-05T02:09:59.799Z,8.60
2022-10-05T02:11:12.124Z,7.78
2022-10-05T02:12:19.896Z,7.65
2022-10-05T02:13:29.168Z,7.07
2022-10-05T02:14:39.484Z,8.35
2022-10-05T02:16:07.515Z,8.30
2022-10-05T02:17:23.845Z,7.25
2022-10-05T02:18:34.139Z,8.23
2022-10-05T02:19:48.444Z,8.13
2022-10-05T02:20:52.948Z,8.75
2022-10-05T02:22:05.296Z,8.48
2022-10-05T02:23:18.462Z,8.38
2022-10-05T02:24:29.719Z,8.15
2022-10-05T02:25:35.866Z,8.15
2022-10-05T02:26:39.314Z,8.23
2022-10-05T02:28:00.038Z,7.93
2022-10-05T02:29:09.598Z,8.98
2022-10-05T02:30:16.348Z,7.85
2022-10-05T02:31:40.401Z,8.48
2022-10-05T02:32:56.501Z,8.20
2022-10-05T02:34:23.430Z,8.77
2022-10-05T02:35:27.594Z,8.20
2022-10-05T02:36:35.911Z,8.38
2022-10-05T02:37:54.332Z,8.10
2022-10-05T02:39:11.165Z,7.93
2022-10-05T02:40:38.245Z,6.97
2022-10-05T02:42:02.249Z,7.85
2022-10-05T02:43:18.673Z,8.65
2022-10-05T02:44:27.445Z,7.82
2022-10-05T02:45:53.198Z,8.07
2022-10-05T02:47:08.596Z,7.80
2022-10-05T02:48:25.399Z,6.75
2022-10-05T02:49:44.340Z,7.63
2022-10-05T02:50:49.320Z,9.45
2022-10-05T02:52:04.661Z,7.20
2022-10-05T02:53:21.469Z,8.47
2022-10-05T02:54:40.111Z,9.20
2022-10-05T02:56:02.024Z,7.90
2022-10-05T02:57:38.587Z,8.52
2022-10-05T02:59:07.963Z,8.05
2022-10-05T03:00:17.041Z,8.18
2022-10-05T03:01:27.893Z,7.97
2022-10-05T03:02:43.044Z,8.15
2022-10-05T03:04:13.044Z,9.07
2022-10-05T03:05:41.864Z,8.63
2022-10-05T03:07:23.983Z,8.07
2022-10-05T03:08:43.988Z,8.00
2022-10-05T03:09:52.654Z,8.27
2022-10-05T03:11:07.331Z,8.50
2022-10-05T03:12:16.919Z,7.97
2022-10-05T03:13:55.626Z,7.35
2022-10-05T03:15:20.804Z,9.18
2022-10-05T03:16:34.349Z,7.50
2022-10-05T03:18:03.176Z,7.57
2022-10-05T03:19:32.942Z,7.43
2022-10-05T03:21:10.817Z,6.80
2022-10-05T03:22:49.156Z,7.85
2022-10-05T03:23:55.591Z,6.53
2022-10-05T03:25:22.722Z,6.72
2022-10-05T03:26:57.997Z,8.25
2022-10-05T03:28:30.017Z,6.53
2022-10-05T03:29:55.723Z,6.20
2022-10-05T03:31:05.493Z,6.88
2022-10-05T03:32:25.332Z,7.47
2022-10-05T03:33:48.026Z,6.85
2022-10-05T03:35:27.531Z,6.53
2022-10-05T03:36:54.405Z,7.03
2022-10-05T03:38:18.292Z,6.60
2022-10-05T03:39:42.011Z,6.60
2022-10-05T03:40:59.662Z,7.38
2022-10-05T03:42:38.863Z,6.38
2022-10-05T03:43:55.713Z,6.55
2022-10-05T03:45:04.812Z,7.53
2022-10-05T03:46:30.075Z,6.90
2022-10-05T03:47:52.233Z,6.85
2022-10-05T03:49:08.637Z,6.83
2022-10-05T03:50:21.347Z,7.20
2022-10-05T03:51:32.192Z,8.32
2022-10-05T03:52:45.388Z,6.82
2022-10-05T03:53:53.127Z,6.70
2022-10-05T03:55:26.422Z,5.97
2022-10-05T03:56:37.605Z,6.03
2022-10-05T03:57:41.843Z,6.57
2022-10-05T03:58:57.440Z,6.97
2022-10-05T04:00:13.629Z,5.18
2022-10-05T04:01:39.979Z,6.47
2022-10-05T04:03:20.491Z,6.28
2022-10-05T04:04:33.605Z,6.82
2022-10-05T04:06:02.369Z,6.00
2022-10-05T04:07:09.671Z,6.80
2022-10-05T04:08:20.897Z,5.82
2022-10-05T04:09:35.499Z,6.40
2022-10-05T04:10:49.500Z,5.68
2022-10-05T04:12:16.951Z,5.88
2022-10-05T04:13:29.743Z,9.20
2022-10-05T04:14:40.445Z,6.47
2022-10-05T04:15:49.475Z,6.88
2022-10-05T04:17:01.374Z,6.03
2022-10-05T04:18:09.773Z,6.20
2022-10-05T04:19:19.297Z,6.63
2022-10-05T04:20:43.364Z,8.32
2022-10-05T04:21:53.537Z,6.78
2022-10-05T04:23:10.419Z,7.43
2022-10-05T04:24:21.107Z,6.43
2022-10-05T04:25:29.456Z,6.43
2022-10-05T04:26:35.889Z,6.07
2022-10-05T04:27:44.147Z,10.27
2022-10-05T04:28:54.150Z,5.40
2022-10-05T04:30:09.102Z,5.88
2022-10-05T04:31:31.417Z,5.95
2022-10-05T04:32:49.963Z,5.95
2022-10-05T04:34:04.236Z,5.88
2022-10-05T04:35:21.481Z,5.75
2022-10-05T04:36:42.783Z,7.50
2022-10-05T04:37:50.174Z,7.25
2022-10-05T04:38:58.269Z,7.47
2022-10-05T04:40:12.461Z,6.30
2022-10-05T04:41:26.004Z,5.65
2022-10-05T04:42:33.934Z,5.63
2022-10-05T04:44:00.893Z,6.90
2022-10-05T04:45:35.131Z,4.75
2022-10-05T04:47:07.818Z,6.32
2022-10-05T04:48:18.099Z,6.15
2022-10-05T04:49:34.589Z,5.35
2022-10-05T04:51:25.738Z,5.65
2022-10-05T04:52:57.824Z,4.50
2022-10-05T04:54:07.372Z,4.53
2022-10-05T04:55:25.105Z,4.75
2022-10-05T04:56:40.252Z,7.05
2022-10-05T04:58:05.111Z,4.88
2022-10-05T04:59:25.189Z,4.45
2022-10-05T05:00:43.020Z,4.30
2022-10-05T05:02:13.656Z,3.90
2022-10-05T05:03:26.981Z,4.70
2022-10-05T05:04:54.555Z,5.45
2022-10-05T05:06:37.539Z,3.10
2022-10-05T05:07:59.013Z,3.95
2022-10-05T05:09:40.435Z,4.22
2022-10-05T05:11:06.791Z,3.78
2022-10-05T05:12:28.271Z,4.30
2022-10-05T05:13:50.776Z,3.80
2022-10-05T05:15:01.262Z,3.88
2022-10-05T05:16:16.784Z,3.65
2022-10-05T05:17:30.658Z,3.38
2022-10-05T05:18:57.342Z,4.68
2022-10-05T05:20:09.447Z,5.17
2022-10-05T05:21:26.768Z,5.10
2022-10-05T05:23:00.846Z,4.00
2022-10-05T05:24:12.076Z,4.20
2022-10-05T05:25:19.448Z,4.15
2022-10-05T05:26:41.787Z,3.80
2022-10-05T05:27:54.914Z,3.33
2022-10-05T05:29:32.449Z,4.95
2022-10-05T05:30:47.119Z,3.97
2022-10-05T05:32:11.205Z,5.07
2022-10-05T05:33:23.294Z,4.10
2022-10-05T05:35:04.422Z,3.85
2022-10-05T05:36:16.510Z,5.25
2022-10-05T05:38:02.153Z,4.40
2022-10-05T05:39:15.625Z,6.15
2022-10-05T05:40:32.575Z,6.78
2022-10-05T05:41:39.623Z,4.68
2022-10-05T05:43:26.138Z,5.80
2022-10-05T05:44:38.560Z,5.55
2022-10-05T05:45:48.440Z,4.50
2022-10-05T05:47:05.306Z,5.10
2022-10-05T05:48:30.444Z,5.93
2022-10-05T05:49:43.947Z,4.80
2022-10-05T05:51:02.410Z,5.80
2022-10-05T05:52:11.544Z,6.47
2022-10-05T05:53:21.962Z,6.20
2022-10-05T05:54:52.289Z,6.57
2022-10-05T05:56:00.859Z,5.72
2022-10-05T05:57:16.770Z,6.30
2022-10-05T05:58:29.584Z,6.07
2022-10-05T05:59:47.666Z,6.23
2022-10-05T06:01:04.537Z,6.22
2022-10-05T06:02:11.894Z,5.13
2022-10-05T06:03:22.581Z,6.10
2022-10-05T06:04:43.707Z,5.68
2022-10-05T06:05:54.446Z,7.38
2022-10-05T06:07:01.090Z,5.00
2022-10-05T06:08:19.845Z,5.57
2022-10-05T06:09:30.234Z,4.85
2022-10-05T06:10:51.287Z,5.32
2022-10-05T06:12:06.685Z,5.37
2022-10-05T06:13:27.780Z,5.72
2022-10-05T06:14:52.237Z,5.30
2022-10-05T06:16:12.771Z,5.38
2022-10-05T06:17:23.577Z,6.32
2022-10-05T06:18:25.981Z,5.60
2022-10-05T06:19:33.863Z,6.00
2022-10-05T06:20:41.918Z,6.63
2022-10-05T06:22:05.359Z,5.95
2022-10-05T06:23:15.894Z,5.68
2022-10-05T06:24:29.466Z,6.43
2022-10-05T06:26:10.462Z,6.25
2022-10-05T06:27:26.519Z,5.18
2022-10-05T06:28:30.180Z,6.18
2022-10-05T06:29:46.047Z,7.07
2022-10-05T06:30:53.968Z,5.68
2022-10-05T06:32:29.019Z,5.55
2022-10-05T06:33:43.092Z,4.95
2022-10-05T06:35:17.120Z,5.38
2022-10-05T06:36:37.779Z,5.97
2022-10-05T06:37:54.494Z,6.43
2022-10-05T06:39:12.844Z,5.63
2022-10-05T06:40:20.545Z,4.80
2022-10-05T06:41:53.967Z,5.05
2022-10-05T06:43:15.801Z,6.60
2022-10-05T06:45:06.222Z,5.57
2022-10-05T06:46:32.021Z,5.15
2022-10-05T06:48:11.348Z,4.97
2022-10-05T06:50:07.466Z,5.05
2022-10-05T06:51:43.884Z,4.93
2022-10-05T06:53:21.030Z,5.37
2022-10-05T06:54:36.548Z,7.03
2022-10-05T06:56:02.516Z,5.07
2022-10-05T06:57:32.436Z,5.55
2022-10-05T06:59:11.333Z,4.53
2022-10-05T07:00:17.235Z,6.53
2022-10-05T07:01:37.912Z,5.97
2022-10-05T07:02:53.778Z,5.32
2022-10-05T07:04:23.081Z,5.65
2022-10-05T07:05:57.155Z,5.40
2022-10-05T07:07:17.228Z,4.90
2022-10-05T07:08:26.485Z,5.10
2022-10-05T07:10:07.824Z,4.32
2022-10-05T07:11:27.513Z,5.15
2022-10-05T07:12:58.691Z,4.70
2022-10-05T07:14:18.624Z,4.82
2022-10-05T07:15:26.739Z,6.00
2022-10-05T07:16:38.102Z,5.18
2022-10-05T07:18:00.023Z,6.03
2022-10-05T07:19:38.323Z,4.88
2022-10-05T07:20:59.270Z,5.10
2022-10-05T07:23:43.142Z,4.80
2022-10-05T07:25:05.746Z,4.40
2022-10-05T07:26:19.015Z,4.97
2022-10-05T07:27:34.566Z,4.63
2022-10-05T07:28:56.054Z,4.68
2022-10-05T07:30:06.736Z,5.63
2022-10-05T07:31:32.362Z,4.18
2022-10-05T07:32:39.469Z,6.22
2022-10-05T07:34:26.041Z,4.03
2022-10-05T07:35:58.244Z,3.80
2022-10-05T07:37:27.961Z,5.25
2022-10-05T07:38:36.201Z,4.80
2022-10-05T07:40:00.118Z,4.60
2022-10-05T07:41:08.174Z,6.90
2022-10-05T07:42:31.791Z,5.05
2022-10-05T07:44:17.594Z,4.53
2022-10-05T07:45:51.287Z,4.65
2022-10-05T07:46:58.702Z,3.88
2022-10-05T07:48:29.637Z,4.73
2022-10-05T07:49:54.575Z,5.60
2022-10-05T07:51:09.048Z,4.18
2022-10-05T07:52:23.695Z,4.75
2022-10-05T07:54:03.729Z,4.25
2022-10-05T07:55:26.090Z,4.97
2022-10-05T07:56:34.373Z,5.43
2022-10-05T07:57:40.936Z,5.25
2022-10-05T07:58:51.710Z,4.05
2022-10-05T08:00:11.603Z,4.95
2022-10-05T08:01:26.351Z,4.93
2022-10-05T08:02:46.634Z,4.43
2022-10-05T08:04:00.513Z,7.10
2022-10-05T08:05:11.185Z,4.85
2022-10-05T08:06:38.184Z,4.38
2022-10-05T08:07:42.219Z,5.63
2022-10-05T08:08:54.652Z,5.18
2022-10-05T08:10:33.919Z,4.47
2022-10-05T08:11:59.125Z,6.07
2022-10-05T08:13:26.274Z,6.25
2022-10-05T08:14:38.523Z,5.20
2022-10-05T08:15:43.261Z,5.13
2022-10-05T08:16:48.580Z,4.28
2022-10-05T08:18:19.310Z,4.82
2022-10-05T08:19:30.748Z,4.45
2022-10-05T08:20:42.998Z,5.20
2022-10-05T08:21:52.105Z,5.15
2022-10-05T08:23:17.416Z,4.10
2022-10-05T08:24:51.919Z,4.65
2022-10-05T08:26:16.669Z,5.43
2022-10-05T08:27:36.168Z,5.03
2022-10-05T08:29:14.040Z,5.05
2022-10-05T08:30:17.555Z,7.13
2022-10-05T08:31:22.812Z,5.20
2022-10-05T08:32:50.463Z,4.45
2022-10-05T08:34:03.839Z,4.90
2022-10-05T08:35:19.908Z,5.40
2022-10-05T08:36:53.754Z,4.85
2022-10-05T08:37:57.400Z,4.57
2022-10-05T08:39:03.968Z,4.68
2022-10-05T08:40:31.110Z,3.97
2022-10-05T08:42:02.414Z,5.10
2022-10-05T08:43:16.681Z,4.43
2022-10-05T08:45:02.856Z,4.30
2022-10-05T08:46:24.330Z,5.10
2022-10-05T08:48:05.135Z,4.50
2022-10-05T08:49:22.063Z,4.35
2022-10-05T08:50:50.022Z,5.20
2022-10-05T08:52:13.090Z,5.13
2022-10-05T08:53:41.912Z,4.20
2022-10-05T08:55:22.023Z,5.33
2022-10-05T08:56:43.040Z,4.10
2022-10-05T08:58:23.858Z,5.05
2022-10-05T08:59:44.049Z,4.57
2022-10-05T09:00:56.574Z,3.97
2022-10-05T09:02:37.352Z,4.60
2022-10-05T09:03:44.489Z,3.25
2022-10-05T09:05:23.572Z,5.15
2022-10-05T09:06:54.490Z,4.10
2022-10-05T09:08:27.098Z,4.80
2022-10-05T09:09:48.500Z,3.00
2022-10-05T09:11:08.199Z,3.92
2022-10-05T09:12:28.362Z,2.72
2022-10-05T09:13:54.414Z,3.60
2022-10-05T09:15:26.472Z,3.17
2022-10-05T09:16:38.673Z,3.95
2022-10-05T09:18:11.042Z,3.00
2022-10-05T09:19:52.666Z,3.97
2022-10-05T09:21:02.994Z,3.95
2022-10-05T09:22:15.642Z,4.60
2022-10-05T09:23:52.358Z,4.00
2022-10-05T09:24:56.249Z,3.47
2022-10-05T09:26:07.091Z,5.50
2022-10-05T09:27:17.190Z,3.92
2022-10-05T09:28:31.874Z,3.60
2022-10-05T09:30:04.463Z,4.72
2022-10-05T09:31:30.619Z,3.22
2022-10-05T09:32:52.572Z,4.05
2022-10-05T09:34:28.815Z,2.95
2022-10-05T09:36:02.075Z,3.45
2022-10-05T09:37:26.801Z,4.27
2022-10-05T09:38:55.991Z,4.07
2022-10-05T09:40:42.473Z,5.15
2022-10-05T09:42:10.579Z,3.33
2022-10-05T09:43:30.979Z,3.20
2022-10-05T09:44:56.413Z,2.80
2022-10-05T09:46:04.015Z,5.32
2022-10-05T09:47:14.263Z,3.08
2022-10-05T09:48:51.791Z,2.60
2022-10-05T09:50:07.426Z,3.65
2022-10-05T09:51:33.519Z,2.70
2022-10-05T09:53:07.470Z,3.25
2022-10-05T09:54:28.791Z,2.70
2022-10-05T09:55:48.233Z,3.05
2022-10-05T09:57:20.521Z,3.25
2022-10-05T09:58:56.751Z,2.00
2022-10-05T10:00:17.405Z,2.75
2022-10-05T10:01:37.453Z,4.93
2022-10-05T10:03:14.071Z,2.83
2022-10-05T10:04:34.352Z,3.70
2022-10-05T10:05:44.937Z,10.17
2022-10-05T10:07:05.345Z,4.72
2022-10-05T10:08:24.785Z,3.08
2022-10-05T10:09:49.486Z,2.80
2022-10-05T10:11:29.263Z,4.68
2022-10-05T10:13:07.487Z,3.88
2022-10-05T10:14:17.140Z,3.95
2022-10-05T10:15:40.386Z,6.50
2022-10-05T10:17:09.678Z,4.75
2022-10-05T10:18:28.583Z,3.47
2022-10-05T10:20:11.060Z,7.20
2022-10-05T10:21:18.863Z,5.38
2022-10-05T10:22:43.099Z,4.40
2022-10-05T10:23:47.914Z,4.25
2022-10-05T10:25:20.657Z,4.47
2022-10-05T10:26:46.185Z,3.67
2022-10-05T10:27:54.415Z,4.95
2022-10-05T10:30:47.933Z,6.43
2022-10-05T10:31:50.220Z,5.22
2022-10-05T10:33:15.684Z,4.30
2022-10-05T10:34:37.851Z,4.82
2022-10-05T10:36:09.898Z,3.67
2022-10-05T10:37:42.367Z,4.28
2022-10-05T10:39:02.171Z,5.47
2022-10-05T10:40:20.381Z,4.38
2022-10-05T10:41:37.591Z,3.33
2022-10-05T10:43:25.146Z,4.78
2022-10-05T10:44:27.066Z,4.88
2022-10-05T10:45:28.846Z,5.18
2022-10-05T10:46:52.718Z,3.63
2022-10-05T10:48:05.217Z,5.00
2022-10-05T10:49:29.275Z,4.47
2022-10-05T10:50:49.425Z,5.32
2022-10-05T10:52:05.544Z,4.25
2022-10-05T10:53:39.907Z,3.92
2022-10-05T10:54:52.895Z,4.88
2022-10-05T10:56:14.579Z,3.70
2022-10-05T10:57:40.683Z,5.53
2022-10-05T10:59:11.059Z,6.75
2022-10-05T11:00:15.561Z,4.33
2022-10-05T11:01:40.257Z,4.93
2022-10-05T11:03:19.043Z,3.95
2022-10-05T11:04:41.453Z,3.65
2022-10-05T11:06:01.612Z,6.60
2022-10-05T11:07:24.809Z,3.90
2022-10-05T11:08:54.821Z,3.05
2022-10-05T11:10:20.176Z,3.22
2022-10-05T11:11:41.089Z,3.30
2022-10-05T11:12:52.426Z,2.85
2022-10-05T11:14:32.996Z,3.43
2022-10-05T11:17:16.974Z,3.15
2022-10-05T11:18:55.940Z,5.38
2022-10-05T11:20:23.519Z,4.00
2022-10-05T11:21:43.413Z,3.85
2022-10-05T11:22:58.938Z,3.50
2022-10-05T11:24:25.367Z,4.70
2022-10-05T11:25:33.002Z,3.38
2022-10-05T11:27:16.730Z,4.03
2022-10-05T11:28:33.623Z,3.17
2022-10-05T11:29:55.611Z,3.22
2022-10-05T11:31:01.416Z,2.85
2022-10-05T11:32:09.151Z,2.63
2022-10-05T11:33:19.809Z,3.60
2022-10-05T11:34:43.390Z,2.78
2022-10-05T11:36:09.080Z,3.05
2022-10-05T11:37:41.472Z,4.65
2022-10-05T11:39:18.059Z,4.30
2022-10-05T11:40:33.389Z,3.72
2022-10-05T11:42:12.764Z,3.10
2022-10-05T11:43:23.261Z,2.80
2022-10-05T11:44:45.275Z,3.08
2022-10-05T11:46:17.592Z,3.45
2022-10-05T11:47:27.944Z,3.20
2022-10-05T11:49:00.426Z,4.45
2022-10-05T11:50:16.883Z,3.10
2022-10-05T11:51:28.878Z,4.68
2022-10-05T11:52:36.936Z,4.53
2022-10-05T11:54:02.721Z,2.58
2022-10-05T11:55:22.091Z,4.37
2022-10-05T11:56:44.514Z,4.93
2022-10-05T11:57:49.409Z,2.92
2022-10-05T11:59:12.316Z,6.93
2022-10-05T12:00:32.619Z,3.22
2022-10-05T12:02:13.442Z,3.70
2022-10-05T12:03:33.791Z,2.72
2022-10-05T12:04:58.833Z,3.17
2022-10-05T12:06:29.237Z,2.58
2022-10-05T12:07:55.678Z,3.83
2022-10-05T12:09:00.249Z,2.17
2022-10-05T12:10:22.836Z,3.78
2022-10-05T12:11:42.930Z,2.95
2022-10-05T12:12:48.945Z,2.83
2022-10-05T12:14:15.507Z,4.35
2022-10-05T12:15:34.670Z,3.90
2022-10-05T12:16:42.705Z,3.78
2022-10-05T12:17:56.073Z,3.13
2022-10-05T12:19:28.336Z,2.15
2022-10-05T12:20:47.616Z,3.10
2022-10-05T12:22:04.217Z,2.60
2022-10-05T12:23:38.664Z,2.95
2022-10-05T12:25:02.024Z,2.65
2022-10-05T12:26:06.692Z,4.05
2022-10-05T12:27:22.731Z,3.65
2022-10-05T12:28:34.649Z,2.50
2022-10-05T12:29:50.775Z,3.65
2022-10-05T12:31:16.576Z,3.55
2022-10-05T12:32:36.816Z,2.63
2022-10-05T12:33:51.208Z,3.53
2022-10-05T12:35:06.513Z,4.43
2022-10-05T12:36:15.185Z,3.47
2022-10-05T12:37:42.074Z,2.50
2022-10-05T12:39:06.057Z,3.92
2022-10-05T12:40:13.667Z,3.13
2022-10-05T12:41:47.672Z,2.38
2022-10-05T12:43:20.319Z,2.35
2022-10-05T12:44:45.081Z,2.53
2022-10-05T12:46:17.737Z,4.63
2022-10-05T12:47:53.517Z,5.25
2022-10-05T12:49:16.352Z,2.30
2022-10-05T12:50:36.784Z,2.75
2022-10-05T12:52:09.713Z,4.25
2022-10-05T12:53:49.494Z,4.43
2022-10-05T12:55:03.209Z,3.50
2022-10-05T12:56:10.127Z,4.13
2022-10-05T12:57:23.776Z,3.15
2022-10-05T12:58:35.044Z,2.72
2022-10-05T12:59:46.444Z,2.80
2022-10-05T13:01:04.179Z,3.63
2022-10-05T13:02:24.185Z,3.50
2022-10-05T13:03:37.978Z,3.42
2022-10-05T13:04:40.211Z,2.28
2022-10-05T13:06:04.182Z,2.85
2022-10-05T13:07:08.785Z,4.05
2022-10-05T13:08:17.792Z,2.35
2022-10-05T13:10:00.917Z,5.15
2022-10-05T13:11:17.548Z,3.78
2022-10-05T13:12:36.248Z,3.78
2022-10-05T13:13:56.965Z,3.60
2022-10-05T13:15:16.339Z,4.13
2022-10-05T13:16:37.090Z,3.17
2022-10-05T13:17:56.806Z,2.50
2022-10-05T13:19:18.277Z,4.00
2022-10-05T13:20:40.477Z,2.75
2022-10-05T13:21:47.546Z,4.05
2022-10-05T13:22:59.531Z,5.28
2022-10-05T13:24:19.623Z,3.00
2022-10-05T13:25:27.219Z,2.88
2022-10-05T13:26:39.769Z,5.05
2022-10-05T13:27:49.460Z,4.17
2022-10-05T13:29:20.584Z,3.92
2022-10-05T13:30:22.858Z,3.15
2022-10-05T13:31:37.601Z,2.72
2022-10-05T13:32:45.693Z,4.07
2022-10-05T13:34:08.170Z,3.03
2022-10-05T13:35:31.121Z,2.10
2022-10-05T13:37:12.198Z,3.38
2022-10-05T13:38:25.871Z,3.13
2022-10-05T13:39:37.911Z,2.97
2022-10-05T13:40:53.475Z,2.90
2022-10-05T13:42:05.166Z,3.13
2022-10-05T13:43:33.520Z,4.20
2022-10-05T13:44:44.604Z,5.15
2022-10-05T13:46:01.887Z,2.20
2022-10-05T13:47:31.871Z,2.40
2022-10-05T13:48:55.725Z,2.83
2022-10-05T13:50:03.648Z,2.70
2022-10-05T13:51:14.917Z,3.75
2022-10-05T13:52:25.597Z,2.50
2022-10-05T13:53:41.377Z,3.10
2022-10-05T13:54:51.246Z,4.50
2022-10-05T13:55:53.187Z,2.60
2022-10-05T13:57:06.168Z,3.03
2022-10-05T13:58:48.461Z,3.13
2022-10-05T14:00:01.459Z,5.60
2022-10-05T14:01:13.502Z,4.03
2022-10-05T14:02:20.990Z,3.22
2022-10-05T14:03:49.939Z,2.88
2022-10-05T14:04:58.984Z,4.50
2022-10-05T14:06:03.708Z,3.53
2022-10-05T14:07:36.552Z,3.85
2022-10-05T14:08:57.763Z,2.70
2022-10-05T14:10:00.795Z,3.95
2022-10-05T14:11:26.571Z,5.85
2022-10-05T14:12:39.313Z,2.10
2022-10-05T14:13:49.253Z,3.45
2022-10-05T14:14:57.103Z,2.88
2022-10-05T14:16:12.393Z,4.13
2022-10-05T14:17:17.927Z,2.95
2022-10-05T14:18:25.153Z,3.80
2022-10-05T14:19:28.168Z,1.95
2022-10-05T14:20:34.412Z,3.13
2022-10-05T14:22:25.649Z,2.97
2022-10-05T14:23:27.768Z,2.75
2022-10-05T14:24:50.472Z,2.58
2022-10-05T14:25:55.107Z,3.90
2022-10-05T14:26:59.264Z,2.53
2022-10-05T14:28:24.150Z,3.17
2022-10-05T14:29:38.293Z,2.75
2022-10-05T14:30:40.531Z,4.47
2022-10-05T14:32:14.851Z,2.90
2022-10-05T14:33:17.240Z,4.57
2022-10-05T14:34:32.287Z,3.55
2022-10-05T14:35:50.175Z,2.45
2022-10-05T14:36:59.555Z,4.18
2022-10-05T14:38:08.041Z,2.58
2022-10-05T14:39:13.952Z,2.17
2022-10-05T14:40:26.623Z,1.83
2022-10-05T14:41:29.883Z,2.03
2022-10-05T14:42:46.933Z,3.27
2022-10-05T14:44:12.955Z,2.72
2022-10-05T14:45:18.266Z,2.20
2022-10-05T14:46:27.178Z,3.40
2022-10-05T14:47:32.173Z,2.35
2022-10-05T14:48:44.906Z,2.13
2022-10-05T14:50:15.543Z,2.85
2022-10-05T14:51:31.930Z,3.05
2022-10-05T14:52:34.770Z,1.80
2022-10-05T14:53:43.579Z,2.53
2022-10-05T14:55:17.856Z,2.53
2022-10-05T14:56:54.858Z,2.47
2022-10-05T14:58:23.776Z,2.08
2022-10-05T14:59:34.278Z,1.50
2022-10-05T15:00:58.414Z,2.70
2022-10-05T15:02:18.977Z,2.40
2022-10-05T15:03:33.984Z,3.25
2022-10-05T15:04:44.153Z,2.10
2022-10-05T15:05:50.847Z,1.95
2022-10-05T15:07:57.413Z,4.15
2022-10-05T15:08:59.273Z,2.80
2022-10-05T15:10:19.950Z,3.03
2022-10-05T15:11:42.616Z,1.88
2022-10-05T15:12:48.479Z,3.25
2022-10-05T15:13:51.002Z,2.58
2022-10-05T15:15:01.538Z,3.65
2022-10-05T15:16:17.944Z,1.90
2022-10-05T15:17:34.143Z,4.30
2022-10-05T15:18:56.773Z,2.17
2022-10-05T15:20:28.502Z,3.35
2022-10-05T15:21:42.443Z,1.93
2022-10-05T15:22:49.738Z,3.42
2022-10-05T15:24:09.515Z,4.35
2022-10-05T15:25:23.129Z,3.40
2022-10-05T15:26:47.354Z,2.85
2022-10-05T15:28:10.415Z,2.28
2022-10-05T15:29:38.218Z,2.05
2022-10-05T15:30:47.810Z,2.05
2022-10-05T15:32:03.992Z,2.83
2022-10-05T15:33:09.344Z,3.33
2022-10-05T15:34:29.026Z,2.13
2022-10-05T15:35:36.097Z,2.45
2022-10-05T15:36:51.751Z,1.60
2022-10-05T15:38:14.391Z,3.05
2022-10-05T15:39:37.214Z,4.25
2022-10-05T15:41:02.905Z,2.08
2022-10-05T15:42:33.280Z,2.05
2022-10-05T15:43:50.343Z,2.60
2022-10-05T15:45:19.127Z,4.93
2022-10-05T15:46:40.014Z,1.90
2022-10-05T15:48:00.114Z,3.03
2022-10-05T15:49:16.714Z,2.25
2022-10-05T15:50:29.772Z,2.15
2022-10-05T15:51:54.955Z,4.70
2022-10-05T15:53:06.603Z,2.10
2022-10-05T15:54:42.478Z,2.42
2022-10-05T15:56:02.987Z,3.67
2022-10-05T15:57:42.318Z,2.40
2022-10-05T15:58:55.493Z,3.13
2022-10-05T16:00:00.579Z,1.52
2022-10-05T16:01:31.798Z,3.17
2022-10-05T16:02:52.314Z,2.42
2022-10-05T16:04:18.426Z,2.67
2022-10-05T16:05:50.764Z,2.63
2022-10-05T16:07:22.105Z,3.28
2022-10-05T16:08:56.213Z,2.38
2022-10-05T16:10:11.046Z,1.88
2022-10-05T16:11:35.918Z,2.55
2022-10-05T16:12:59.490Z,2.42
2022-10-05T16:14:21.109Z,2.15
2022-10-05T16:15:33.372Z,3.10
2022-10-05T16:16:53.332Z,2.38
2022-10-05T16:18:07.410Z,4.20
2022-10-05T16:19:32.007Z,2.60
2022-10-05T16:21:00.051Z,2.25
2022-10-05T16:22:15.566Z,1.95
2022-10-05T16:23:46.449Z,2.65
2022-10-05T16:25:14.080Z,3.83
2022-10-05T16:26:43.362Z,2.20
2022-10-05T16:28:15.574Z,2.13
2022-10-05T16:29:20.100Z,2.50
2022-10-05T16:30:23.286Z,2.10
2022-10-05T16:32:06.958Z,1.58
2022-10-05T16:33:23.964Z,2.92
2022-10-05T16:34:36.534Z,2.00
2022-10-05T16:36:16.155Z,1.80
2022-10-05T16:37:39.379Z,1.90
2022-10-05T16:38:54.243Z,2.30
2022-10-05T16:40:14.211Z,2.08
2022-10-05T16:41:38.248Z,2.10
2022-10-05T16:43:03.534Z,1.60
2022-10-05T16:44:34.685Z,2.75
2022-10-05T16:45:51.834Z,3.05
2022-10-05T16:47:45.637Z,2.42
2022-10-05T16:49:10.390Z,2.83
2022-10-05T16:50:27.618Z,2.92
2022-10-05T16:51:50.717Z,2.30
2022-10-05T16:53:11.197Z,3.15
2022-10-05T16:54:21.945Z,3.28
2022-10-05T16:55:38.167Z,2.78
2022-10-05T16:56:46.168Z,2.07
2022-10-05T16:57:55.640Z,2.33
2022-10-05T16:59:19.248Z,2.85
2022-10-05T17:00:41.698Z,3.55
2022-10-05T17:01:55.769Z,4.78
2022-10-05T17:03:32.474Z,2.85
2022-10-05T17:04:54.389Z,2.15
2022-10-05T17:06:12.124Z,2.78
2022-10-05T17:07:17.164Z,2.10
2022-10-05T17:08:54.247Z,2.50
2022-10-05T17:10:24.408Z,2.13
2022-10-05T17:11:55.823Z,2.97
2022-10-05T17:13:27.843Z,2.33
2022-10-05T17:14:39.640Z,2.05
2022-10-05T17:16:00.757Z,3.70
2022-10-05T17:17:02.746Z,3.22
2022-10-05T17:18:04.683Z,3.67
2022-10-05T17:19:25.332Z,2.63
2022-10-05T17:20:42.659Z,2.60
2022-10-05T17:22:06.461Z,3.17
2022-10-05T17:23:31.501Z,3.23
2022-10-05T17:25:00.424Z,3.38
2022-10-05T17:26:16.195Z,6.10
2022-10-05T17:27:52.592Z,2.47
2022-10-05T17:29:10.586Z,2.70
2022-10-05T17:30:27.113Z,1.90
2022-10-05T17:31:31.192Z,4.18
2022-10-05T17:32:39.581Z,2.42
2022-10-05T17:33:59.885Z,3.83
2022-10-05T17:35:01.772Z,2.13
2022-10-05T17:36:08.498Z,2.17
2022-10-05T17:37:18.842Z,1.98
2022-10-05T17:38:23.252Z,2.70